createdAt,value
2022-11-24T00:02:16.820Z,5.96
2022-11-24T00:04:43.276Z,6.02
2022-11-24T00:07:09.723Z,6.04
2022-11-24T00:09:36.092Z,5.81
2022-11-24T00:12:02.791Z,5.78
2022-11-24T00:14:29.188Z,5.89
2022-11-24T00:16:55.764Z,5.87
2022-11-24T00:19:22.256Z,6.47
2022-11-24T00:21:48.656Z,6.18
2022-11-24T00:24:15.092Z,6.00
2022-11-24T00:26:41.536Z,5.95
2022-11-24T00:29:09.256Z,5.85
2022-11-24T00:31:38.495Z,5.94
2022-11-24T00:34:09.593Z,5.77
2022-11-24T00:36:36.697Z,5.85
2022-11-24T00:39:06.136Z,6.09
2022-11-24T00:41:33.109Z,5.73
2022-11-24T00:44:00.309Z,5.84
2022-11-24T00:46:27.278Z,5.93
2022-11-24T00:48:54.067Z,5.80
2022-11-24T00:51:23.264Z,5.74
2022-11-24T00:53:49.750Z,5.38
2022-11-24T00:56:16.323Z,5.31
2022-11-24T00:58:42.732Z,5.76
2022-11-24T01:01:15.582Z,5.86
2022-11-24T01:03:42.572Z,5.91
2022-11-24T01:06:14.717Z,5.33
2022-11-24T01:08:41.845Z,5.75
2022-11-24T01:11:20.102Z,5.85
2022-11-24T01:13:51.261Z,5.92
2022-11-24T01:16:25.621Z,5.89
2022-11-24T01:18:52.647Z,5.84
2022-11-24T01:21:20.114Z,5.53
2022-11-24T01:23:46.861Z,5.73
2022-11-24T01:26:16.737Z,5.80
2022-11-24T01:28:47.174Z,5.67
2022-11-24T01:31:15.222Z,5.87
2022-11-24T01:33:41.720Z,5.84
2022-11-24T01:36:08.155Z,5.86
2022-11-24T01:38:34.607Z,5.88
2022-11-24T01:41:22.354Z,5.79
2022-11-24T01:43:49.670Z,6.13
2022-11-24T01:46:42.054Z,6.04
2022-11-24T01:49:08.382Z,5.98
2022-11-24T01:51:39.212Z,5.88
2022-11-24T01:54:11.254Z,5.93
2022-11-24T01:56:42.508Z,5.95
2022-11-24T01:59:14.294Z,5.89
2022-11-24T02:01:40.758Z,5.96
2022-11-24T02:04:15.682Z,5.84
2022-11-24T02:06:44.242Z,5.83
2022-11-24T02:09:27.643Z,5.83
2022-11-24T02:11:54.836Z,6.21
2022-11-24T02:14:23.768Z,5.94
2022-11-24T02:16:51.580Z,5.92
2022-11-24T02:19:31.890Z,5.92
2022-11-24T02:21:58.584Z,6.18
2022-11-24T02:24:37.341Z,6.08
2022-11-24T02:27:03.958Z,6.13
2022-11-24T02:29:30.541Z,5.95
2022-11-24T02:32:01.648Z,5.96
2022-11-24T02:34:28.048Z,5.89
2022-11-24T02:36:54.448Z,6.00
2022-11-24T02:39:20.885Z,5.93
2022-11-24T02:42:01.545Z,5.91
2022-11-24T02:44:32.827Z,5.93
2022-11-24T02:47:08.667Z,5.99
2022-11-24T02:49:35.543Z,5.97
2022-11-24T02:52:02.369Z,5.80
2022-11-24T02:54:28.818Z,5.86
2022-11-24T02:56:55.535Z,5.87
2022-11-24T02:59:22.120Z,5.98
2022-11-24T03:01:48.596Z,5.87
2022-11-24T03:04:15.139Z,6.01
2022-11-24T03:06:43.223Z,6.00
2022-11-24T03:09:11.314Z,5.98
2022-11-24T03:11:38.483Z,5.77
2022-11-24T03:14:05.898Z,5.97
2022-11-24T03:16:32.610Z,6.03
2022-11-24T03:18:59.433Z,6.04
2022-11-24T03:21:25.888Z,5.94
2022-11-24T03:23:53.332Z,6.04
2022-11-24T03:26:22.047Z,5.86
2022-11-24T03:28:48.448Z,5.82
2022-11-24T03:31:15.139Z,5.26
2022-11-24T03:33:41.630Z,5.82
2022-11-24T03:36:08.684Z,5.98
2022-11-24T03:38:35.138Z,6.00
2022-11-24T03:41:01.574Z,5.75
2022-11-24T03:43:28.083Z,6.03
2022-11-24T03:45:54.472Z,6.09
2022-11-24T03:48:21.282Z,6.11
2022-11-24T03:50:58.803Z,6.09
2022-11-24T03:53:26.949Z,6.07
2022-11-24T03:55:53.382Z,6.06
2022-11-24T03:58:20.071Z,6.14
2022-11-24T04:00:49.482Z,6.10
2022-11-24T04:03:16.050Z,5.82
2022-11-24T04:05:42.465Z,6.01
2022-11-24T04:08:09.286Z,5.88
2022-11-24T04:10:37.820Z,5.70
2022-11-24T04:13:10.361Z,5.86
2022-11-24T04:15:40.026Z,6.05
2022-11-24T04:18:06.844Z,6.07
2022-11-24T04:20:33.493Z,6.09
2022-11-24T04:23:00.071Z,6.06
2022-11-24T04:25:26.947Z,6.06
2022-11-24T04:27:55.168Z,5.93
2022-11-24T04:30:23.166Z,5.23
2022-11-24T04:32:49.746Z,5.88
2022-11-24T04:35:16.420Z,5.94
2022-11-24T04:37:42.818Z,5.98
2022-11-24T04:40:11.182Z,5.88
2022-11-24T04:42:37.957Z,6.01
2022-11-24T04:45:06.510Z,6.01
2022-11-24T04:47:33.116Z,5.88
2022-11-24T04:50:00.223Z,5.45
2022-11-24T04:52:26.618Z,5.92
2022-11-24T04:54:53.022Z,5.54
2022-11-24T04:57:22.004Z,5.17
2022-11-24T04:59:49.744Z,5.73
2022-11-24T05:02:16.813Z,6.08
2022-11-24T05:04:43.526Z,5.88
2022-11-24T05:07:18.302Z,5.76
2022-11-24T05:10:04.114Z,5.70
2022-11-24T05:12:31.291Z,6.02
2022-11-24T05:14:59.302Z,5.97
2022-11-24T05:17:29.698Z,6.02
2022-11-24T05:19:56.120Z,5.99
2022-11-24T05:22:22.652Z,6.10
2022-11-24T05:24:48.996Z,6.03
2022-11-24T05:27:15.697Z,5.62
2022-11-24T05:29:42.076Z,5.83
2022-11-24T05:32:08.463Z,5.60
2022-11-24T05:34:35.052Z,5.97
2022-11-24T05:37:04.544Z,5.99
2022-11-24T05:39:37.991Z,6.01
2022-11-24T05:42:25.032Z,5.94
2022-11-24T05:44:51.946Z,6.09
2022-11-24T05:47:18.811Z,6.04
2022-11-24T05:49:45.437Z,5.96
2022-11-24T05:52:12.288Z,5.44
2022-11-24T05:54:38.775Z,5.12
2022-11-24T05:57:05.466Z,5.86
2022-11-24T05:59:31.846Z,5.89
2022-11-24T06:01:58.308Z,6.02
2022-11-24T06:04:24.758Z,6.02
2022-11-24T06:06:51.290Z,6.10
2022-11-24T06:09:17.850Z,5.81
2022-11-24T06:11:44.214Z,5.93
2022-11-24T06:14:11.526Z,6.10
2022-11-24T06:16:38.392Z,5.85
2022-11-24T06:19:04.980Z,6.01
2022-11-24T06:21:31.801Z,6.12
2022-11-24T06:23:58.499Z,6.14
2022-11-24T06:26:24.889Z,4.90
2022-11-24T06:28:51.267Z,5.87
2022-11-24T06:31:17.699Z,5.91
2022-11-24T06:33:44.303Z,6.07
2022-11-24T06:36:14.033Z,5.89
2022-11-24T06:38:40.345Z,6.08
2022-11-24T06:41:09.771Z,5.68
2022-11-24T06:43:36.221Z,6.01
2022-11-24T06:46:03.501Z,6.08
2022-11-24T06:48:30.836Z,6.12
2022-11-24T06:51:08.407Z,4.96
2022-11-24T06:53:37.950Z,5.87
2022-11-24T06:56:15.248Z,6.08
2022-11-24T06:58:45.080Z,6.12
2022-11-24T07:01:16.761Z,4.64
2022-11-24T07:03:43.313Z,5.44
2022-11-24T07:06:09.991Z,5.94
2022-11-24T07:08:36.526Z,6.02
2022-11-24T07:11:08.162Z,6.07
2022-11-24T07:13:35.029Z,6.09
2022-11-24T07:16:16.277Z,5.49
2022-11-24T07:18:47.021Z,5.63
2022-11-24T07:21:14.004Z,5.71
2022-11-24T07:23:40.404Z,5.68
2022-11-24T07:26:08.151Z,5.76
2022-11-24T07:28:36.615Z,6.01
2022-11-24T07:31:07.779Z,5.34
2022-11-24T07:33:34.555Z,5.99
2022-11-24T07:36:01.912Z,6.08
2022-11-24T07:38:29.717Z,6.08
2022-11-24T07:41:03.639Z,6.31
2022-11-24T07:43:34.293Z,6.53
2022-11-24T07:46:00.970Z,6.55
2022-11-24T07:48:27.551Z,6.48
2022-11-24T07:50:55.979Z,6.29
2022-11-24T07:53:22.824Z,6.31
2022-11-24T07:56:00.614Z,6.35
2022-11-24T07:58:33.160Z,6.26
2022-11-24T08:01:00.935Z,6.25
2022-11-24T08:03:27.930Z,6.38
2022-11-24T08:08:46.421Z,6.51
2022-11-24T08:11:15.944Z,6.35
2022-11-24T08:13:42.900Z,7.36
2022-11-24T08:16:12.030Z,6.25
2022-11-24T08:18:39.195Z,7.52
2022-11-24T08:21:06.916Z,7.46
2022-11-24T08:23:33.736Z,8.75
2022-11-24T08:26:05.080Z,11.43
2022-11-24T08:28:31.965Z,9.52
2022-11-24T08:31:06.469Z,7.38
2022-11-24T08:33:32.956Z,7.30
2022-11-24T08:36:07.393Z,14.00
2022-11-24T08:38:34.087Z,10.56
2022-11-24T08:41:12.254Z,7.57
2022-11-24T08:43:38.977Z,10.25
2022-11-24T08:46:07.861Z,15.05
2022-11-24T08:48:34.979Z,13.46
2022-11-24T08:51:08.313Z,9.40
2022-11-24T08:53:34.753Z,13.69
2022-11-24T08:56:01.697Z,12.14
2022-11-24T08:58:28.908Z,10.82
2022-11-24T09:00:55.412Z,11.07
2022-11-24T09:03:22.051Z,11.22
2022-11-24T09:05:52.776Z,11.22
2022-11-24T09:08:19.471Z,10.27
2022-11-24T09:10:45.855Z,9.33
2022-11-24T09:13:12.228Z,9.20
2022-11-24T09:15:38.611Z,10.59
2022-11-24T09:18:05.421Z,12.62
2022-11-24T09:20:31.812Z,13.41
2022-11-24T09:22:58.160Z,15.31
2022-11-24T09:25:24.539Z,10.76
2022-11-24T09:27:51.292Z,12.01
2022-11-24T09:30:17.819Z,12.50
2022-11-24T09:32:44.196Z,12.51
2022-11-24T09:35:10.568Z,9.07
2022-11-24T09:37:37.142Z,11.37
2022-11-24T09:40:03.971Z,9.53
2022-11-24T09:42:53.366Z,8.58
2022-11-24T09:46:04.533Z,9.94
2022-11-24T09:48:33.345Z,10.42
2022-11-24T09:51:03.592Z,10.35
2022-11-24T09:53:45.925Z,9.36
2022-11-24T09:56:23.865Z,9.12
2022-11-24T09:59:10.496Z,9.20
2022-11-24T10:01:41.977Z,9.32
2022-11-24T10:04:18.357Z,8.55
2022-11-24T10:07:12.387Z,8.10
2022-11-24T10:09:44.622Z,7.76
2022-11-24T10:12:48.663Z,7.73
2022-11-24T10:15:25.771Z,7.85
2022-11-24T10:18:16.197Z,7.50
2022-11-24T10:20:59.254Z,7.68
2022-11-24T10:23:53.336Z,8.01
2022-11-24T10:26:31.713Z,8.13
2022-11-24T10:28:58.120Z,7.87
2022-11-24T10:31:35.688Z,8.38
2022-11-24T10:34:13.529Z,8.45
2022-11-24T10:36:48.354Z,8.17
2022-11-24T10:39:34.899Z,7.86
2022-11-24T10:42:17.851Z,7.63
2022-11-24T10:44:44.357Z,7.65
2022-11-24T10:47:22.696Z,7.61
2022-11-24T10:50:20.986Z,7.67
2022-11-24T10:53:14.540Z,7.75
2022-11-24T10:55:58.854Z,7.56
2022-11-24T10:58:26.647Z,7.60
2022-11-24T11:00:54.870Z,8.03
2022-11-24T11:03:31.658Z,8.01
2022-11-24T11:06:15.617Z,7.94
2022-11-24T11:08:42.054Z,7.82
2022-11-24T11:11:28.316Z,8.06
2022-11-24T11:14:03.875Z,8.10
2022-11-24T11:16:38.946Z,8.31
2022-11-24T11:20:00.334Z,8.45
2022-11-24T11:22:28.890Z,8.42
2022-11-24T11:25:07.895Z,8.23
2022-11-24T11:27:34.620Z,8.35
2022-11-24T11:35:51.137Z,8.39
2022-11-24T11:38:18.336Z,8.43
2022-11-24T11:40:47.833Z,8.15
2022-11-24T11:43:31.783Z,8.13
2022-11-24T11:46:09.282Z,8.16
2022-11-24T11:48:43.223Z,8.22
2022-11-24T11:51:25.563Z,8.40
2022-11-24T11:54:19.925Z,7.96
2022-11-24T11:56:50.075Z,7.70
2022-11-24T11:59:22.273Z,7.64
2022-11-24T12:02:03.933Z,7.77
2022-11-24T12:04:52.575Z,7.78
2022-11-24T12:07:37.601Z,7.60
2022-11-24T12:10:25.918Z,7.77
2022-11-24T12:13:10.839Z,7.70
2022-11-24T12:15:47.207Z,7.74
2022-11-24T12:18:55.893Z,7.61
2022-11-24T12:21:29.736Z,7.83
2022-11-24T12:24:17.992Z,7.62
2022-11-24T12:27:03.369Z,8.39
2022-11-24T12:29:54.165Z,7.94
2022-11-24T12:32:32.473Z,7.53
2022-11-24T12:35:17.877Z,7.61
2022-11-24T12:38:04.306Z,7.99
2022-11-24T12:41:18.212Z,7.62
2022-11-24T12:43:55.440Z,7.54
2022-11-24T12:46:53.654Z,7.62
2022-11-24T12:49:29.948Z,7.60
2022-11-24T12:52:03.215Z,7.57
2022-11-24T12:54:38.609Z,7.60
2022-11-24T12:57:10.677Z,8.04
2022-11-24T12:59:48.003Z,7.87
2022-11-24T13:02:29.701Z,7.81
2022-11-24T13:05:35.289Z,8.13
2022-11-24T13:08:04.278Z,8.14
2022-11-24T13:10:54.897Z,8.16
2022-11-24T13:13:26.351Z,7.62
2022-11-24T13:16:07.124Z,7.78
2022-11-24T13:18:44.281Z,7.72
2022-11-24T13:21:41.399Z,7.84
2022-11-24T13:24:16.702Z,7.49
2022-11-24T13:26:47.243Z,7.59
2022-11-24T13:29:36.229Z,7.71
2022-11-24T13:32:02.568Z,7.71
2022-11-24T13:34:41.011Z,7.73
2022-11-24T13:37:31.784Z,7.76
2022-11-24T13:40:13.164Z,7.82
2022-11-24T13:42:54.808Z,7.94
2022-11-24T13:45:39.722Z,7.78
2022-11-24T13:48:22.619Z,8.02
2022-11-24T13:50:58.400Z,7.68
2022-11-24T13:53:40.203Z,7.68
2022-11-24T13:56:12.594Z,7.69
2022-11-24T13:58:41.781Z,7.66
2022-11-24T14:01:12.925Z,7.60
2022-11-24T14:04:07.159Z,7.62
2022-11-24T14:06:44.062Z,7.66
2022-11-24T14:09:32.108Z,7.63
2022-11-24T14:12:07.555Z,7.64
2022-11-24T14:14:34.276Z,7.62
2022-11-24T14:17:13.055Z,7.62
2022-11-24T14:19:39.678Z,7.59
2022-11-24T14:22:06.166Z,7.38
2022-11-24T14:24:39.753Z,7.63
2022-11-24T14:27:14.357Z,7.48
2022-11-24T14:29:57.815Z,7.54
2022-11-24T14:32:24.951Z,7.52
2022-11-24T14:34:52.240Z,7.50
2022-11-24T14:37:20.011Z,7.50
2022-11-24T14:39:46.947Z,6.76
2022-11-24T14:42:22.040Z,7.49
2022-11-24T14:44:59.860Z,7.45
2022-11-24T14:47:31.821Z,7.45
2022-11-24T14:50:09.394Z,7.58
2022-11-24T14:52:36.426Z,7.54
2022-11-24T14:55:21.421Z,6.83
2022-11-24T14:57:49.060Z,7.46
2022-11-24T15:00:19.477Z,7.40
2022-11-24T15:02:51.813Z,7.44
2022-11-24T15:05:24.076Z,7.47
2022-11-24T15:08:01.030Z,7.31
2022-11-24T15:10:37.266Z,7.32
2022-11-24T15:13:13.876Z,7.38
2022-11-24T15:15:46.145Z,7.38
2022-11-24T15:18:27.796Z,7.44
2022-11-24T15:20:54.783Z,7.49
2022-11-24T15:23:29.207Z,7.33
2022-11-24T15:25:57.211Z,6.99
2022-11-24T15:28:27.463Z,7.18
2022-11-24T15:30:55.497Z,7.02
2022-11-24T15:33:23.236Z,7.30
2022-11-24T15:35:49.933Z,6.99
2022-11-24T15:38:16.987Z,7.26
2022-11-24T15:40:46.337Z,7.14
2022-11-24T15:43:18.132Z,7.26
2022-11-24T15:45:44.547Z,7.24
2022-11-24T15:48:14.882Z,7.12
2022-11-24T15:50:45.044Z,7.20
2022-11-24T15:53:37.729Z,7.19
2022-11-24T15:56:08.012Z,7.40
2022-11-24T15:58:34.556Z,7.42
2022-11-24T16:01:01.155Z,7.48
2022-11-24T16:03:57.471Z,6.50
2022-11-24T16:06:22.194Z,7.29
2022-11-24T16:08:51.253Z,7.34
2022-11-24T16:11:17.621Z,7.14
2022-11-24T16:13:50.117Z,7.40
2022-11-24T16:16:18.575Z,6.70
2022-11-24T16:18:45.376Z,7.31
2022-11-24T16:21:12.000Z,7.27
2022-11-24T16:23:38.426Z,7.28
2022-11-24T16:26:05.580Z,7.43
2022-11-24T16:28:32.539Z,7.03
2022-11-24T16:30:58.919Z,7.37
2022-11-24T16:33:25.308Z,7.41
2022-11-24T16:35:51.720Z,7.37
2022-11-24T16:38:19.751Z,7.38
2022-11-24T16:40:53.345Z,7.43
2022-11-24T16:43:20.149Z,7.37
2022-11-24T16:45:46.601Z,7.44
2022-11-24T16:48:13.065Z,7.40
2022-11-24T16:50:39.420Z,7.44
2022-11-24T16:53:05.817Z,7.46
2022-11-24T16:55:32.217Z,6.92
2022-11-24T16:57:58.581Z,5.48
2022-11-24T17:00:24.952Z,7.10
2022-11-24T17:02:51.389Z,7.23
2022-11-24T17:05:17.840Z,7.36
2022-11-24T17:07:44.268Z,7.39
2022-11-24T17:10:10.849Z,7.31
2022-11-24T17:12:37.634Z,7.14
2022-11-24T17:18:22.311Z,7.28
2022-11-24T17:20:38.053Z,7.37
2022-11-24T17:23:04.457Z,7.31
2022-11-24T17:25:32.846Z,7.38
2022-11-24T17:27:59.263Z,7.37
2022-11-24T17:30:25.624Z,7.44
2022-11-24T17:32:56.634Z,7.40
2022-11-24T17:35:23.562Z,6.25
2022-11-24T17:37:49.987Z,6.92
2022-11-24T17:40:34.266Z,7.26
2022-11-24T17:43:01.437Z,7.39
2022-11-24T17:45:29.432Z,7.33
2022-11-24T17:47:58.392Z,7.31
2022-11-24T17:50:26.299Z,7.34
2022-11-24T17:52:54.113Z,7.38
2022-11-24T17:55:20.887Z,7.28
2022-11-24T17:57:47.274Z,7.33
2022-11-24T18:00:14.268Z,6.66
2022-11-24T18:02:40.770Z,7.28
2022-11-24T18:05:07.501Z,7.24
2022-11-24T18:07:36.600Z,7.31
2022-11-24T18:10:04.149Z,7.25
2022-11-24T18:12:30.521Z,7.01
2022-11-24T18:14:56.970Z,7.23
2022-11-24T18:17:23.394Z,7.31
2022-11-24T18:19:49.812Z,6.51
2022-11-24T18:22:16.196Z,7.12
2022-11-24T18:24:42.584Z,7.22
2022-11-24T18:27:08.953Z,7.30
2022-11-24T18:29:35.334Z,7.34
2022-11-24T18:32:02.193Z,7.24
2022-11-24T18:34:28.626Z,7.19
2022-11-24T18:37:02.380Z,7.17
2022-11-24T18:39:29.727Z,7.25
2022-11-24T18:41:56.123Z,7.18
2022-11-24T18:44:22.609Z,7.18
2022-11-24T18:46:49.327Z,7.15
2022-11-24T18:49:15.718Z,7.10
2022-11-24T18:51:42.092Z,7.14
2022-11-24T18:54:08.672Z,7.20
2022-11-24T18:56:35.079Z,7.14
2022-11-24T18:59:01.552Z,7.15
2022-11-24T19:01:29.204Z,7.15
2022-11-24T19:03:58.110Z,5.92
2022-11-24T19:06:32.472Z,6.42
2022-11-24T19:09:01.892Z,6.94
2022-11-24T19:11:32.450Z,6.46
2022-11-24T19:13:59.439Z,6.94
2022-11-24T19:16:26.444Z,6.99
2022-11-24T19:18:56.653Z,7.00
2022-11-24T19:21:23.121Z,6.52
2022-11-24T19:23:50.071Z,6.90
2022-11-24T19:26:16.548Z,6.86
2022-11-24T19:28:43.070Z,6.96
2022-11-24T19:31:12.628Z,6.96
2022-11-24T19:33:39.363Z,6.93
2022-11-24T19:36:08.292Z,7.04
2022-11-24T19:38:35.400Z,7.08
2022-11-24T19:41:06.684Z,6.97
2022-11-24T19:43:34.037Z,6.94
2022-11-24T19:46:08.142Z,6.96
2022-11-24T19:48:37.402Z,6.84
2022-11-24T19:51:10.058Z,6.87
2022-11-24T19:53:36.505Z,6.88
2022-11-24T19:56:26.957Z,6.84
2022-11-24T19:58:55.068Z,6.88
2022-11-24T20:01:29.833Z,6.74
2022-11-24T20:04:00.331Z,6.81
2022-11-24T20:06:38.277Z,6.86
2022-11-24T20:09:07.521Z,6.76
2022-11-24T20:11:33.953Z,6.84
2022-11-24T20:14:00.349Z,6.76
2022-11-24T20:16:32.123Z,6.86
2022-11-24T20:19:00.910Z,6.83
2022-11-24T20:21:31.420Z,6.79
2022-11-24T20:23:58.844Z,6.71
2022-11-24T20:26:28.083Z,6.68
2022-11-24T20:28:56.017Z,6.73
2022-11-24T20:31:25.229Z,6.68
2022-11-24T20:33:51.952Z,6.60
2022-11-24T20:36:21.643Z,6.68
2022-11-24T20:38:49.111Z,6.80
2022-11-24T20:41:18.504Z,6.68
2022-11-24T20:43:45.673Z,6.63
2022-11-24T20:46:15.257Z,6.67
2022-11-24T20:48:41.742Z,6.57
2022-11-24T20:51:14.058Z,6.73
2022-11-24T20:53:40.571Z,3.66
2022-11-24T20:56:10.163Z,6.04
2022-11-24T20:58:37.905Z,5.59
2022-11-24T21:01:11.160Z,6.33
2022-11-24T21:03:42.764Z,5.83
2022-11-24T21:06:11.956Z,5.00
2022-11-24T21:08:40.463Z,6.11
2022-11-24T21:11:08.903Z,6.32
2022-11-24T21:13:36.972Z,6.33
2022-11-24T21:16:21.318Z,6.39
2022-11-24T21:18:52.348Z,6.42
2022-11-24T21:21:22.789Z,6.35
2022-11-24T21:23:49.333Z,6.38
2022-11-24T21:26:17.609Z,6.28
2022-11-24T21:28:46.064Z,1.96
2022-11-24T21:31:18.553Z,5.43
2022-11-24T21:33:47.479Z,6.04
2022-11-24T21:36:16.203Z,6.17
2022-11-24T21:38:42.805Z,4.95
2022-11-24T21:41:10.504Z,3.25
2022-11-24T21:43:37.246Z,4.08
2022-11-24T21:46:09.170Z,5.76
2022-11-24T21:48:36.654Z,6.01
2022-11-24T21:51:05.384Z,6.03
2022-11-24T21:53:34.275Z,6.16
2022-11-24T21:56:05.069Z,6.03
2022-11-24T21:58:31.713Z,6.16
2022-11-24T22:01:05.771Z,6.03
2022-11-24T22:03:32.233Z,6.09
2022-11-24T22:06:00.361Z,6.09
2022-11-24T22:08:28.692Z,1.94
2022-11-24T22:11:07.517Z,5.18
2022-11-24T22:13:34.384Z,5.82
2022-11-24T22:16:03.209Z,5.85
2022-11-24T22:18:34.195Z,5.94
2022-11-24T22:21:02.792Z,5.97
2022-11-24T22:23:33.612Z,5.31
2022-11-24T22:26:26.486Z,5.42
2022-11-24T22:28:57.085Z,5.82
2022-11-24T22:31:32.176Z,5.90
2022-11-24T22:34:00.295Z,5.89
2022-11-24T22:36:28.730Z,5.16
2022-11-24T22:39:02.867Z,5.65
2022-11-24T22:41:31.061Z,5.71
2022-11-24T22:43:57.466Z,5.77
2022-11-24T22:46:26.362Z,5.73
2022-11-24T22:48:54.343Z,5.77
2022-11-24T22:51:23.957Z,5.77
2022-11-24T22:53:53.516Z,5.52
2022-11-24T22:56:20.876Z,5.69
2022-11-24T22:58:47.836Z,5.54
2022-11-24T23:01:17.105Z,5.07
2022-11-24T23:03:44.153Z,5.63
2022-11-24T23:06:13.652Z,5.72
2022-11-24T23:08:40.344Z,5.73
2022-11-24T23:11:20.099Z,5.45
2022-11-24T23:13:46.786Z,5.66
2022-11-24T23:16:15.629Z,5.64
2022-11-24T23:18:43.176Z,4.10
2022-11-24T23:21:18.488Z,5.47
2022-11-24T23:23:45.695Z,5.56
2022-11-24T23:26:23.573Z,5.61
2022-11-24T23:28:50.888Z,5.56
2022-11-24T23:31:20.235Z,5.67
2022-11-24T23:33:47.586Z,5.61
2022-11-24T23:36:19.484Z,5.56
2022-11-24T23:38:46.707Z,5.43
2022-11-24T23:41:16.167Z,5.00
2022-11-24T23:43:43.059Z,3.99
2022-11-24T23:46:12.233Z,5.28
2022-11-24T23:48:39.530Z,5.41
2022-11-24T23:51:23.868Z,5.53
2022-11-24T23:53:51.413Z,5.45
2022-11-24T23:56:20.111Z,5.47
2022-11-24T23:58:46.974Z,5.48
